Dodge City Regional Airport

Airport
ICAO code: 
KDDC
Summary
ICAO Region: 
NAM
Territory: 
Location: 
Dodge City, Kansas,
Elevation: 
2594 ft
Coordinates: 
Aerial View: 
37° 45' 42.062" N, 99° 57' 50.051" W
Airport CFIT: 
Altimeter Temperature Error Correction
Metar
Observation
KDDC 021452Z AUTO 29005KT 10SM CLR 08/M03 A3008 RMK AO2 SLP183 T00831028 51007
Station
Dodge City, Dodge City Regional Airport
Date/Time
2021-12-02 14:52:00
Wind direction
290°
Wind speed
05 kts
Lowest cloud amount
n/a
Temperature
8.3°C
Dew point
-2.8°C
Humidity
45%
Weather condition
n/a

Description

Dodge City Regional Airport is a public-use airport located 6 km east of the central business district of Dodge City, in Ford County, Kansas.

Climatology

Dodge City lies at the intersection of North America's semi-arid (Köppen climate classification Bsk) and humid subtropical climate (Köppen climate classification Cfa) zones, with hot summers, highly variable winters, both warm and very cold periods, and low to moderate humidity and precipitation throughout the year

Runways

Designator Length Width Surface Rops
2/20 1417 30 ASP Yes/Yes
14/32 2103 30 ASP Yes/Yes
Airport map: 
Aerial View: 

SKYbrary Partners:

Safety knowledge contributed by: